Amethyst — UDTS — position and weather

sailwx.info

Track history (hours):
 
Tides and Currents Weather Stations Pressure Air Temp Water Temp Dewpoint Dewpoint Depression Visibility Wind Speed Wind Dir Waves Ship Positions

Amethyst

Last reported at 2018-May-01 02:58 UTC. Time now 2018-May-22 02:21 UTC.
Position N 44°28' E 012°15'.
Warning: this ship's position is 20 days out of date.

Length 108 m; draft 3.5 m.

Type: Cargo ship. MMSI: 273445370.

Date/timePositionNaut miles runAvg speedWind from/ knotsBaromVisibWave heightAir tempDewpointWater temp
2018-May-01 02:58N 44°28' E 012°15'10 0.3
2018-Apr-29 16:25N 44°30' E 012°28'0 0.0
2018-Apr-29 15:53N 44°30' E 012°28'0 0.0
2018-Apr-29 15:29N 44°30' E 012°28'0 0.0
2018-Apr-29 14:09N 44°30' E 012°28'0 0.0
2018-Apr-29 13:42N 44°30' E 012°28'0 0.0
2018-Apr-29 13:27N 44°30' E 012°28'0 0.0
2018-Apr-29 12:58N 44°30' E 012°28'0 0.0
2018-Apr-28 21:53N 44°30' E 012°28'0 0.0
2018-Apr-28 18:58N 44°30' E 012°28'0 0.0
2018-Apr-28 17:59N 44°30' E 012°28'28 1.8
2018-Apr-28 02:15N 44°20' E 013°05'2 7.0
2018-Apr-28 02:00N 44°20' E 013°07'4 7.0
2018-Apr-28 01:30N 44°19' E 013°12'4 6.9
2018-Apr-28 00:59N 44°17' E 013°16'  
2018-Apr-24 03:40N 37°03' E 023°43'2 8.3
2018-Apr-24 03:26N 37°05' E 023°44'6 8.3
2018-Apr-24 02:41N 37°10' E 023°48'2 8.6
2018-Apr-24 02:31N 37°11' E 023°49'5 8.5
2018-Apr-24 01:56N 37°15' E 023°52'5 8.4
2018-Apr-24 01:22N 37°19' E 023°55'  
Track history (hours):
 
Tides and Currents Weather Stations Pressure Air Temp Water Temp Dewpoint Dewpoint Depression Visibility Wind Speed Wind Dir Waves Ship Positions

Amethyst

Last reported at 2018-May-01 02:58 UTC. Time now 2018-May-22 02:21 UTC.
Position N 44°28' E 012°15'.
Warning: this ship's position is 20 days out of date.

Length 108 m; draft 3.5 m.

Type: Cargo ship. MMSI: 273445370.

Date/timePositionNaut miles runAvg speedWind from/ knotsBaromVisibWave heightAir tempDewpointWater temp
2018-May-01 02:58N 44°28' E 012°15'10 0.3
2018-Apr-29 16:25N 44°30' E 012°28'0 0.0
2018-Apr-29 15:53N 44°30' E 012°28'0 0.0
2018-Apr-29 15:29N 44°30' E 012°28'0 0.0
2018-Apr-29 14:09N 44°30' E 012°28'0 0.0
2018-Apr-29 13:42N 44°30' E 012°28'0 0.0
2018-Apr-29 13:27N 44°30' E 012°28'0 0.0
2018-Apr-29 12:58N 44°30' E 012°28'0 0.0
2018-Apr-28 21:53N 44°30' E 012°28'0 0.0
2018-Apr-28 18:58N 44°30' E 012°28'0 0.0
2018-Apr-28 17:59N 44°30' E 012°28'28 1.8
2018-Apr-28 02:15N 44°20' E 013°05'2 7.0
2018-Apr-28 02:00N 44°20' E 013°07'4 7.0
2018-Apr-28 01:30N 44°19' E 013°12'4 6.9
2018-Apr-28 00:59N 44°17' E 013°16'  
2018-Apr-24 03:40N 37°03' E 023°43'2 8.3
2018-Apr-24 03:26N 37°05' E 023°44'6 8.3
2018-Apr-24 02:41N 37°10' E 023°48'2 8.6
2018-Apr-24 02:31N 37°11' E 023°49'5 8.5
2018-Apr-24 01:56N 37°15' E 023°52'5 8.4
2018-Apr-24 01:22N 37°19' E 023°55'  

Dump ship's entire track history